Terminal Aerodrome Forecast
Issued by NWS

Home | Current Version | Previous Version | Text Only | Print | Product List | Glossary On
Versions: 1 2 3 4 5 6 7 8 9 10 11 12 13 14 15 16 17 18 19 20
665
FTUS43 KLSX 171120
TAFSUS
TAF
KSUS 171120Z 1712/1812 23007KT P6SM SKC WS020/26035KT
     FM171400 24012G18KT P6SM FEW250
     FM172300 20007KT P6SM SCT100=

USA.gov is the U.S. government's official web portal to all federal, state and local government web resources and services.